Time;durP1;ratioP1;P1;durP2;ratioP2;P2;SDS_P1;SDS_P2;PMS_P1;PMS_P2;Temp;Humidity;BMP_temperature;BMP_pressure;BME280_temperature;BME280_humidity;BME280_pressure;Samples;Min_cycle;Max_cycle;Signal;HPM_P1;HPM_P2
2022/04/28 00:00:42;;;;;;;17.80;9.50;;;;;;;4.15;81.41;102838.94;6128855;23;20005;-81
2022/04/28 00:03:09;;;;;;;22.35;9.50;;;;;;;4.46;81.76;102893.38;6155319;23;20020;-80
2022/04/28 00:05:35;;;;;;;20.42;8.77;;;;;;;4.39;81.60;102893.38;6156132;23;20002;-82
2022/04/28 00:08:00;;;;;;;18.13;9.10;;;;;;;4.41;81.69;102896.78;6155522;23;20012;-82
2022/04/28 00:10:26;;;;;;;14.93;9.02;;;;;;;4.03;81.81;102842.41;6155493;23;20026;-81
2022/04/28 00:12:51;;;;;;;19.23;9.43;;;;;;;4.32;81.80;102908.75;6155728;23;20427;-80
2022/04/28 00:15:16;;;;;;;20.60;9.60;;;;;;;4.29;81.84;102908.78;6155372;23;20013;-82
2022/04/28 00:17:42;;;;;;;20.05;9.73;;;;;;;3.74;82.79;102827.16;6155632;23;20001;-80
2022/04/28 00:20:08;;;;;;;18.85;9.20;;;;;;;4.20;82.19;102908.78;6155457;23;20057;-80
2022/04/28 00:22:34;;;;;;;21.52;9.38;;;;;;;3.85;82.35;102849.28;6155550;23;20010;-80
2022/04/28 00:24:59;;;;;;;21.05;9.57;;;;;;;3.92;82.53;102858.59;6157052;23;20085;-82
2022/04/28 00:27:24;;;;;;;17.70;9.25;;;;;;;3.91;82.56;102860.31;6157372;23;20415;-80
2022/04/28 00:29:50;;;;;;;20.67;9.02;;;;;;;3.89;82.41;102861.16;6157660;23;20010;-80
2022/04/28 00:32:15;;;;;;;18.85;9.30;;;;;;;4.19;82.63;102912.22;6157527;23;20325;-80
2022/04/28 00:34:43;;;;;;;18.70;9.50;;;;;;;3.91;82.40;102874.78;6131713;23;20328;-82
2022/04/28 00:37:09;;;;;;;20.70;9.55;;;;;;;3.50;82.65;102804.19;6157350;23;20085;-80
2022/04/28 00:39:36;;;;;;;19.25;9.15;;;;;;;4.07;82.98;102908.84;6157328;23;20021;-83
2022/04/28 00:42:01;;;;;;;18.48;9.52;;;;;;;4.01;83.11;102909.69;6156984;23;20012;-80
2022/04/28 00:44:26;;;;;;;16.33;9.35;;;;;;;3.98;82.88;102899.50;6157327;23;20093;-80
2022/04/28 00:46:52;;;;;;;18.10;9.98;;;;;;;4.00;83.16;102913.13;6157362;23;20029;-79
2022/04/28 00:52:02;;;;;;;18.95;10.02;;;;;;;2.45;83.18;102659.66;6157412;23;20036;-80
2022/04/28 00:54:28;;;;;;;21.05;10.55;;;;;;;3.88;83.31;102900.38;6156998;23;19997;-80
2022/04/28 00:57:18;;;;;;;21.33;9.65;;;;;;;3.93;83.47;102908.84;6157480;23;20006;-81
2022/04/28 00:59:45;;;;;;;20.45;10.40;;;;;;;3.04;83.44;102765.94;6156977;23;20001;-81
2022/04/28 01:02:10;;;;;;;20.00;9.93;;;;;;;3.04;83.79;102780.41;6156930;23;20412;-81
2022/04/28 01:04:37;;;;;;;17.25;9.55;;;;;;;3.90;84.00;102904.63;6157135;23;20006;-80
2022/04/28 01:07:03;;;;;;;18.55;9.13;;;;;;;3.58;84.06;102851.03;6156982;23;20025;-79
2022/04/28 01:09:29;;;;;;;20.60;10.18;;;;;;;3.55;83.91;102852.75;6157234;23;20043;-80
2022/04/28 01:11:54;;;;;;;20.20;9.77;;;;;;;3.82;84.41;102902.91;6130273;23;20029;-80
2022/04/28 01:14:20;;;;;;;23.02;11.65;;;;;;;3.82;84.32;102902.91;6157237;23;20005;-83
2022/04/28 01:16:45;;;;;;;21.38;10.85;;;;;;;3.77;83.93;102902.09;6156928;23;20446;-81
2022/04/28 01:19:10;;;;;;;22.73;10.82;;;;;;;3.77;84.81;102905.50;6157366;23;20145;-80
2022/04/28 01:21:36;;;;;;;20.48;11.10;;;;;;;3.74;84.38;102908.91;6156805;23;20005;-82
2022/04/28 01:24:03;;;;;;;22.45;11.27;;;;;;;3.50;84.72;102869.75;6157226;23;20084;-80
2022/04/28 01:26:28;;;;;;;23.67;11.40;;;;;;;3.45;84.83;102869.78;6157100;23;20077;-79
2022/04/28 01:28:54;;;;;;;19.80;10.40;;;;;;;3.44;84.76;102871.47;6156972;23;20357;-80
2022/04/28 01:31:19;;;;;;;19.33;10.23;;;;;;;3.71;84.66;102905.50;6156969;23;20005;-83
2022/04/28 01:33:44;;;;;;;23.85;11.05;;;;;;;3.35;84.76;102852.75;6156884;23;20474;-83
2022/04/28 01:36:10;;;;;;;19.85;11.20;;;;;;;3.69;84.71;102910.63;6156681;23;20002;-85
2022/04/28 01:38:35;;;;;;;21.38;10.90;;;;;;;3.67;85.19;102912.31;6156863;23;20005;-80
2022/04/28 01:41:01;;;;;;;26.17;10.65;;;;;;;3.66;84.83;102910.63;6157111;23;20129;-81
2022/04/28 01:43:26;;;;;;;22.52;10.65;;;;;;;3.71;84.80;102903.78;6157120;23;20538;-81
2022/04/28 01:45:51;;;;;;;24.95;10.75;;;;;;;3.73;84.97;102922.53;6156537;23;20010;-80
2022/04/28 01:48:17;;;;;;;19.05;10.43;;;;;;;3.30;84.80;102844.22;6156548;23;20029;-79
2022/04/28 01:54:57;;;;;;;30.35;11.35;;;;;;;3.67;84.72;102907.22;6156590;23;20048;-81
2022/04/28 01:56:14;;;;;;;28.35;10.75;;;;;;;3.51;84.83;102871.47;6156825;23;20510;-87
2022/04/28 01:58:39;;;;;;;24.70;11.40;;;;;;;3.38;85.04;102850.19;6156515;23;20423;-89
2022/04/28 02:01:05;;;;;;;21.55;10.90;;;;;;;3.34;84.87;102843.38;6156195;23;20009;-85
2022/04/28 02:03:30;;;;;;;23.50;10.85;;;;;;;3.78;85.36;102903.78;6156775;23;20006;-88
2022/04/28 02:05:56;;;;;;;23.25;11.52;;;;;;;3.58;84.92;102880.81;6129786;23;20010;-89
2022/04/28 02:08:22;;;;;;;29.30;11.35;;;;;;;3.44;84.96;102865.50;6156645;23;20428;-84
2022/04/28 02:10:47;;;;;;;23.55;11.70;;;;;;;3.07;85.22;102806.81;6130268;23;20016;-88
2022/04/28 02:13:13;;;;;;;19.77;10.98;;;;;;;3.63;85.17;102913.16;6156455;23;20009;-88
2022/04/28 02:15:38;;;;;;;19.08;10.65;;;;;;;3.60;85.67;102913.19;6156505;23;20048;-88
2022/04/28 02:18:03;;;;;;;20.13;11.23;;;;;;;3.40;85.77;102881.69;6156608;23;20006;-88
2022/04/28 02:20:29;;;;;;;20.80;11.10;;;;;;;3.40;85.91;102887.63;6156790;23;20006;-89
2022/04/28 02:22:54;;;;;;;20.42;10.68;;;;;;;3.47;86.06;102908.94;6156131;23;20068;-88
2022/04/28 02:25:20;;;;;;;27.45;12.63;;;;;;;3.47;86.34;102908.09;6156698;23;20033;-88
2022/04/28 02:27:45;;;;;;;22.73;11.20;;;;;;;3.20;86.06;102879.13;6129795;23;20001;-87
2022/04/28 02:30:11;;;;;;;24.55;11.23;;;;;;;3.36;86.59;102913.19;6156355;23;20085;-86
2022/04/28 02:35:20;;;;;;;27.85;11.88;;;;;;;3.01;87.32;102870.59;6156386;23;20045;-88
2022/04/28 02:37:46;;;;;;;24.08;11.55;;;;;;;3.24;87.02;102910.59;6156061;23;20005;-87
2022/04/28 02:40:11;;;;;;;22.88;11.75;;;;;;;3.07;87.18;102883.38;6131061;23;20032;-86
2022/04/28 02:42:36;;;;;;;26.88;11.40;;;;;;;3.08;87.05;102884.22;6156565;23;20005;-87
2022/04/28 02:45:02;;;;;;;22.83;11.98;;;;;;;3.01;87.38;102877.41;6156136;23;20001;-86
2022/04/28 02:47:27;;;;;;;25.80;12.02;;;;;;;3.23;88.11;102908.91;6155659;23;20001;-87
2022/04/28 02:49:52;;;;;;;20.90;11.98;;;;;;;3.00;87.73;102876.56;6155969;23;20014;-88
2022/04/28 02:52:18;;;;;;;23.92;11.68;;;;;;;3.18;87.73;102908.91;6155932;23;20320;-87
2022/04/28 02:54:43;;;;;;;26.50;11.98;;;;;;;3.17;88.01;102905.50;6156149;23;20056;-85
2022/04/28 02:57:08;;;;;;;25.77;12.38;;;;;;;3.16;88.23;102910.63;6155944;23;20005;-88
2022/04/28 02:59:34;;;;;;;26.10;13.05;;;;;;;3.05;88.11;102889.34;6156220;23;20480;-87
2022/04/28 03:01:59;;;;;;;25.65;12.70;;;;;;;3.14;88.61;102907.19;6155956;23;20009;-88
2022/04/28 03:04:25;;;;;;;29.35;12.65;;;;;;;3.19;88.16;102910.63;6130069;23;20304;-88
2022/04/28 03:12:19;;;;;;;22.60;12.38;;;;;;;3.18;88.58;102919.13;6155979;23;20091;-89
2022/04/28 03:14:44;;;;;;;27.10;12.38;;;;;;;2.87;88.17;102867.19;6156185;23;20463;-82
2022/04/28 03:17:09;;;;;;;27.38;12.90;;;;;;;3.13;88.51;102913.16;6156016;23;20025;-88
2022/04/28 03:19:35;;;;;;;24.27;12.40;;;;;;;2.85;88.29;102879.06;6155721;23;20085;-89
2022/04/28 03:22:00;;;;;;;27.90;12.57;;;;;;;2.70;88.36;102853.53;6155683;23;20355;-86
2022/04/28 03:24:25;;;;;;;25.67;12.98;;;;;;;3.10;88.40;102913.16;6155804;23;20002;-87
2022/04/28 03:26:51;;;;;;;25.15;13.27;;;;;;;3.07;88.54;102914.00;6155729;23;20047;-88
2022/04/28 03:29:16;;;;;;;31.52;13.60;;;;;;;2.76;88.47;102862.06;6155969;23;20084;-87
2022/04/28 03:31:41;;;;;;;30.40;14.20;;;;;;;2.78;88.54;102869.72;6155597;23;20076;-82
2022/04/28 03:34:07;;;;;;;26.70;13.32;;;;;;;3.02;88.40;102915.69;6129570;23;20006;-89
2022/04/28 03:36:51;;;;;;;28.42;13.75;;;;;;;2.98;88.95;102900.38;6155999;23;20018;-88
2022/04/28 03:39:17;;;;;;;28.55;13.93;;;;;;;3.02;89.25;102918.25;6155828;23;20323;-87
2022/04/28 03:41:42;;;;;;;26.63;13.32;;;;;;;3.01;89.44;102914.00;6155703;23;20002;-85
2022/04/28 03:44:09;;;;;;;28.90;12.30;;;;;;;3.01;88.92;102918.25;6129112;23;20010;-87
2022/04/28 03:46:35;;;;;;;28.58;13.25;;;;;;;2.75;89.30;102880.78;6155796;23;20002;-90
2022/04/28 03:49:00;;;;;;;30.10;14.77;;;;;;;2.85;89.41;102892.72;6155652;23;20061;-87
2022/04/28 03:51:25;;;;;;;24.73;13.40;;;;;;;2.73;89.66;102874.78;6155994;23;20009;-88
2022/04/28 03:53:51;;;;;;;25.20;12.85;;;;;;;2.75;89.22;102872.25;6156304;23;20002;-89
2022/04/28 03:56:16;;;;;;;28.50;13.73;;;;;;;2.69;89.31;102870.56;6155575;23;20424;-89
2022/04/28 03:58:42;;;;;;;23.95;13.27;;;;;;;2.44;89.44;102840.72;6157010;23;20016;-87
2022/04/28 04:01:07;;;;;;;29.00;13.45;;;;;;;2.95;90.09;102918.22;6157501;23;20080;-86
2022/04/28 04:03:33;;;;;;;33.67;14.32;;;;;;;2.92;89.92;102920.78;6157376;23;20009;-87
2022/04/28 04:05:58;;;;;;;30.55;12.75;;;;;;;2.92;89.53;102925.88;6157603;23;20001;-88
2022/04/28 04:08:23;;;;;;;26.90;12.95;;;;;;;2.90;89.74;102925.03;6157826;23;20005;-81
2022/04/28 04:10:49;;;;;;;25.00;13.55;;;;;;;2.89;90.14;102919.06;6157878;23;19998;-85
2022/04/28 04:13:15;;;;;;;28.17;13.38;;;;;;;2.90;89.91;102923.31;6157536;23;20084;-86
2022/04/28 04:15:41;;;;;;;29.17;14.23;;;;;;;2.38;90.11;102839.00;6131823;23;20012;-81
2022/04/28 04:18:06;;;;;;;32.72;14.35;;;;;;;2.95;90.25;102926.75;6157553;23;20328;-89
2022/04/28 04:20:32;;;;;;;28.08;13.50;;;;;;;2.90;89.81;102930.97;6157533;23;20081;-85
2022/04/28 04:22:59;;;;;;;30.15;14.13;;;;;;;2.62;89.72;102878.16;6157517;23;20005;-86
2022/04/28 04:25:24;;;;;;;26.75;13.43;;;;;;;2.88;89.77;102932.69;6157776;23;20005;-90
2022/04/28 04:27:49;;;;;;;27.33;14.35;;;;;;;2.66;90.10;102885.00;6159031;23;20383;-88
2022/04/28 04:32:59;;;;;;;36.20;15.40;;;;;;;2.60;90.20;102870.53;6157144;23;20016;-84
2022/04/28 04:35:24;;;;;;;29.27;14.68;;;;;;;2.70;89.84;102887.56;6157024;23;20013;-88
2022/04/28 04:37:51;;;;;;;29.08;14.75;;;;;;;2.67;89.99;102871.41;6157713;23;20008;-86
2022/04/28 04:40:17;;;;;;;27.75;15.02;;;;;;;3.05;89.84;102936.13;6157299;23;20001;-82
2022/04/28 04:42:42;;;;;;;28.20;15.30;;;;;;;3.09;89.94;102937.84;6157143;23;20013;-82
2022/04/28 04:45:09;;;;;;;26.58;14.55;;;;;;;2.67;89.87;102867.16;6157362;23;20010;-89
2022/04/28 04:47:38;;;;;;;33.47;15.07;;;;;;;3.19;90.06;102943.81;6157119;23;20029;-88
2022/04/28 04:50:05;;;;;;;32.83;14.95;;;;;;;3.25;90.04;102956.59;6156612;23;20013;-84
2022/04/28 04:52:31;;;;;;;30.15;15.02;;;;;;;3.07;89.61;102919.13;6156961;23;20001;-85
2022/04/28 04:54:56;;;;;;;26.23;13.73;;;;;;;3.09;89.70;102917.41;6157415;23;20009;-89
2022/04/28 04:57:22;;;;;;;26.40;15.00;;;;;;;3.40;89.62;102954.03;6157401;23;20006;-85
2022/04/28 04:59:47;;;;;;;33.22;15.13;;;;;;;3.52;88.99;102960.00;6157162;23;20013;-80
2022/04/28 05:02:12;;;;;;;30.90;14.93;;;;;;;3.57;89.08;102956.63;6157096;23;20009;-81
2022/04/28 05:04:38;;;;;;;32.67;14.73;;;;;;;3.63;88.52;102966.81;6156748;23;20025;-81
2022/04/28 05:07:03;;;;;;;28.25;14.38;;;;;;;3.71;88.35;102964.25;6156937;23;20005;-89
2022/04/28 05:09:28;;;;;;;28.77;14.48;;;;;;;3.79;87.96;102964.28;6131017;23;20005;-86
2022/04/28 05:11:54;;;;;;;30.35;14.95;;;;;;;3.85;87.84;102965.13;6157009;23;20313;-87
2022/04/28 05:14:19;;;;;;;31.05;15.05;;;;;;;3.72;87.52;102928.47;6157292;23;20008;-86
2022/04/28 05:16:44;;;;;;;30.27;15.50;;;;;;;3.53;87.15;102885.91;6156812;23;20079;-86
2022/04/28 05:19:10;;;;;;;28.38;15.25;;;;;;;4.07;87.27;102972.75;6156641;23;20009;-86
2022/04/28 05:21:35;;;;;;;29.83;15.75;;;;;;;4.13;87.19;102976.19;6130596;23;20016;-87
2022/04/28 05:24:01;;;;;;;34.50;17.30;;;;;;;4.21;86.73;102978.69;6157125;23;20037;-87
2022/04/28 05:26:26;;;;;;;30.05;15.85;;;;;;;4.03;86.02;102937.00;6157267;23;20319;-87
2022/04/28 05:28:51;;;;;;;36.20;16.50;;;;;;;4.19;85.73;102942.91;6156817;23;20005;-85
2022/04/28 05:31:17;;;;;;;35.22;15.27;;;;;;;4.49;85.22;102985.44;6156353;23;20309;-86
2022/04/28 05:33:42;;;;;;;34.95;16.58;;;;;;;4.56;85.38;102982.00;6156845;23;20029;-85
2022/04/28 05:36:10;;;;;;;30.88;15.05;;;;;;;4.58;85.13;102976.88;6156625;23;20008;-87
2022/04/28 05:38:37;;;;;;;32.35;16.33;;;;;;;4.69;84.89;102980.25;6131421;23;20001;-85
2022/04/28 05:41:03;;;;;;;30.23;14.93;;;;;;;4.98;84.31;102990.38;6130513;23;20005;-84
2022/04/28 05:46:13;;;;;;;28.55;15.20;;;;;;;6.00;81.56;102991.41;6156434;23;20017;-81
2022/04/28 05:48:39;;;;;;;31.17;15.07;;;;;;;7.47;76.70;103003.25;6130456;23;20331;-85
2022/04/28 05:51:04;;;;;;;31.35;15.10;;;;;;;8.44;71.26;102913.22;6156244;23;20008;-85
2022/04/28 05:53:29;;;;;;;22.98;12.77;;;;;;;9.39;66.85;102877.56;6153949;23;20987;-83
2022/04/28 05:55:55;;;;;;;28.23;12.73;;;;;;;11.01;62.51;102984.09;6186302;23;20084;-80
2022/04/28 05:58:20;;;;;;;25.77;12.63;;;;;;;11.67;59.84;102931.94;6186496;23;20019;-82
2022/04/28 06:00:46;;;;;;;23.35;12.45;;;;;;;13.19;56.44;102998.13;6186382;23;20056;-85
2022/04/28 06:03:11;;;;;;;25.63;12.15;;;;;;;13.43;52.67;102884.69;6186373;23;20005;-82
2022/04/28 06:05:36;;;;;;;26.67;11.30;;;;;;;14.23;51.88;103003.31;6186206;23;20024;-83
2022/04/28 06:08:02;;;;;;;20.95;12.15;;;;;;;14.60;50.69;103006.00;6186419;23;20005;-83
2022/04/28 06:10:27;;;;;;;22.42;12.07;;;;;;;14.94;49.00;102994.03;6186728;23;20339;-83
2022/04/28 06:12:53;;;;;;;22.92;12.10;;;;;;;15.52;48.23;103011.22;6185852;23;20001;-85
2022/04/28 06:15:18;;;;;;;22.30;10.95;;;;;;;15.76;47.62;103004.84;6186651;23;20066;-82
2022/04/28 06:17:43;;;;;;;20.27;10.95;;;;;;;15.98;45.85;102955.09;6187272;23;20001;-87
2022/04/28 06:20:09;;;;;;;20.48;11.93;;;;;;;16.41;44.63;103024.06;6185751;23;20001;-83
2022/04/28 06:22:34;;;;;;;18.98;11.73;;;;;;;16.27;45.21;102988.28;6185374;23;20009;-85
2022/04/28 06:25:00;;;;;;;23.33;12.43;;;;;;;16.74;44.20;103023.25;6186397;23;20009;-86
2022/04/28 06:27:29;;;;;;;24.75;13.38;;;;;;;16.81;45.15;103022.81;6186482;23;20070;-89
2022/04/28 06:29:54;;;;;;;21.80;12.20;;;;;;;17.06;43.11;103024.06;6186440;23;20366;-81
2022/04/28 06:32:25;;;;;;;23.90;11.32;;;;;;;17.01;42.49;103023.47;6186257;23;20059;-84
2022/04/28 06:34:50;;;;;;;21.75;11.55;;;;;;;16.85;43.46;103029.56;6185586;23;20029;-85
2022/04/28 06:37:16;;;;;;;19.98;11.20;;;;;;;17.07;42.93;103025.75;6186061;23;20516;-83
2022/04/28 06:39:41;;;;;;;24.77;12.00;;;;;;;16.66;42.41;103020.16;6186292;23;20459;-84
2022/04/28 06:42:07;;;;;;;25.13;12.15;;;;;;;16.25;43.77;103012.75;6185500;23;20005;-82
2022/04/28 06:44:33;;;;;;;21.70;11.38;;;;;;;16.65;42.43;102988.00;6186255;23;20009;-84
2022/04/28 06:46:59;;;;;;;22.55;11.55;;;;;;;16.90;41.80;103029.28;6185134;23;20001;-84
2022/04/28 06:49:24;;;;;;;19.80;10.52;;;;;;;17.05;41.85;103025.00;6185820;23;20323;-86
2022/04/28 06:52:01;;;;;;;21.25;11.23;;;;;;;16.54;42.20;102985.16;6185009;23;20084;-83
2022/04/28 06:54:26;;;;;;;23.20;11.57;;;;;;;16.02;42.25;102876.66;6185302;23;20013;-84
2022/04/28 06:56:52;;;;;;;21.40;10.95;;;;;;;17.34;40.40;102987.66;6185310;23;20300;-80
2022/04/28 06:59:20;;;;;;;24.08;11.45;;;;;;;17.28;41.24;103032.38;6185816;23;20315;-82
2022/04/28 07:01:46;;;;;;;21.98;11.63;;;;;;;17.27;41.46;102962.81;6186170;23;20004;-79
2022/04/28 07:04:11;;;;;;;26.85;11.48;;;;;;;17.46;40.83;103047.03;6185444;23;20423;-84
2022/04/28 07:06:37;;;;;;;26.63;11.55;;;;;;;17.93;40.22;103053.09;6185067;23;20015;-81
2022/04/28 07:09:02;;;;;;;18.77;11.45;;;;;;;17.71;40.41;102993.41;6185397;23;20009;-81
2022/04/28 07:11:27;;;;;;;23.42;11.02;;;;;;;17.53;40.57;103024.00;6185719;23;20053;-81
2022/04/28 07:13:53;;;;;;;20.63;10.75;;;;;;;17.73;40.51;103049.84;6159524;23;20027;-79
2022/04/28 07:16:18;;;;;;;21.20;11.35;;;;;;;17.10;40.32;103055.13;6185683;23;20060;-84
2022/04/28 07:18:44;;;;;;;21.10;11.00;;;;;;;15.38;43.87;103037.94;6185824;23;20059;-80
2022/04/28 07:21:10;;;;;;;24.60;13.35;;;;;;;13.64;47.57;103017.91;6185629;23;20059;-81
2022/04/28 07:23:35;;;;;;;21.27;11.90;;;;;;;13.06;51.40;103066.03;6185383;23;20418;-80
2022/04/28 07:26:00;;;;;;;24.40;12.13;;;;;;;12.42;53.12;103060.63;6185741;23;20012;-81
2022/04/28 07:28:26;;;;;;;24.70;11.88;;;;;;;11.80;55.04;103064.44;6185472;23;20033;-81
2022/04/28 07:30:51;;;;;;;26.25;13.00;;;;;;;11.35;56.81;103077.88;6185589;23;20001;-79
2022/04/28 07:33:16;;;;;;;23.40;11.23;;;;;;;10.78;56.69;103044.22;6185253;23;20055;-84
2022/04/28 07:35:42;;;;;;;28.30;13.60;;;;;;;10.40;58.44;103034.94;6185272;23;20012;-84
2022/04/28 07:38:08;;;;;;;27.55;12.38;;;;;;;10.59;60.01;103078.31;6184977;23;20039;-81
2022/04/28 07:40:36;;;;;;;26.33;13.32;;;;;;;10.62;60.19;103083.44;6185398;23;20008;-81
2022/04/28 07:43:01;;;;;;;31.45;13.90;;;;;;;10.44;61.09;103050.34;6185525;23;20013;-85
2022/04/28 07:45:26;;;;;;;24.40;12.88;;;;;;;10.59;61.54;103085.22;6185600;23;20427;-80
2022/04/28 07:47:52;;;;;;;23.60;11.90;;;;;;;10.30;60.78;103024.88;6185664;23;20360;-81
2022/04/28 07:50:17;;;;;;;25.48;13.10;;;;;;;10.68;60.00;103089.31;6185465;23;20002;-82
2022/04/28 07:52:44;;;;;;;25.55;12.35;;;;;;;10.58;60.82;103084.38;6183961;22;20017;-88
2022/04/28 07:55:24;;;;;;;27.40;12.43;;;;;;;10.23;61.00;103005.28;6185011;23;20313;-85
2022/04/28 07:57:50;;;;;;;28.00;12.33;;;;;;;9.83;61.63;102933.16;6185143;23;20057;-86
2022/04/28 08:00:15;;;;;;;25.35;11.70;;;;;;;10.78;59.31;103096.75;6159402;23;20592;-84
2022/04/28 08:02:41;;;;;;;22.88;12.10;;;;;;;10.68;59.43;103102.22;6159350;23;20446;-81
2022/04/28 08:05:06;;;;;;;31.42;12.77;;;;;;;9.73;60.07;102957.50;6188234;23;20001;-83
2022/04/28 08:07:37;;;;;;;24.60;12.68;;;;;;;10.37;59.23;103071.19;6159001;23;20012;-82
2022/04/28 08:10:15;;;;;;;22.67;12.50;;;;;;;10.11;58.74;103023.63;6185370;23;20009;-82
2022/04/28 08:12:40;;;;;;;26.08;12.43;;;;;;;10.51;59.76;103095.75;6185235;23;20024;-82
2022/04/28 08:15:18;;;;;;;29.65;13.10;;;;;;;10.69;60.92;103122.00;6185493;23;20008;-82
2022/04/28 08:17:43;;;;;;;27.15;12.75;;;;;;;9.25;61.14;102882.22;6184995;23;20028;-85
2022/04/28 08:20:09;;;;;;;27.10;13.10;;;;;;;10.55;60.46;103096.56;6157901;23;20052;-84
2022/04/28 08:22:34;;;;;;;27.40;12.20;;;;;;;10.36;61.06;103065.19;6185097;23;20442;-84
2022/04/28 08:25:01;;;;;;;28.25;13.25;;;;;;;10.70;59.49;103126.28;6185634;23;20001;-86
2022/04/28 08:27:27;;;;;;;27.45;13.52;;;;;;;10.70;59.23;103116.78;6158307;23;20095;-85
2022/04/28 08:29:52;;;;;;;25.02;13.25;;;;;;;10.43;59.46;103071.91;6185401;23;20001;-87
2022/04/28 08:32:17;;;;;;;24.63;12.48;;;;;;;10.75;59.84;103127.03;6185604;23;20008;-84
2022/04/28 08:34:43;;;;;;;25.40;12.35;;;;;;;10.48;59.47;103079.50;6185180;23;20004;-81
2022/04/28 08:37:11;;;;;;;25.65;12.70;;;;;;;10.79;59.79;103128.63;6185405;23;20012;-82
2022/04/28 08:39:36;;;;;;;22.30;11.65;;;;;;;10.65;59.41;103081.66;6184958;23;20001;-81
2022/04/28 08:42:02;;;;;;;22.75;12.02;;;;;;;10.82;59.62;103102.72;6185421;23;20005;-83
2022/04/28 08:44:27;;;;;;;23.83;11.40;;;;;;;10.96;58.53;103110.91;6185826;23;20446;-83
2022/04/28 08:46:54;;;;;;;26.95;12.52;;;;;;;11.06;57.17;103120.09;6187200;23;20438;-82
2022/04/28 08:49:38;;;;;;;18.58;11.15;;;;;;;10.87;58.43;103077.56;6187005;23;20001;-84
2022/04/28 08:52:06;;;;;;;19.10;10.38;;;;;;;10.17;57.50;102971.84;6159902;23;20335;-82
2022/04/28 08:54:36;;;;;;;24.63;10.85;;;;;;;10.63;56.48;103038.63;6186614;23;20013;-84
2022/04/28 08:57:01;;;;;;;22.90;11.45;;;;;;;11.02;56.94;103105.59;6187127;23;20079;-85
2022/04/28 08:59:27;;;;;;;22.00;10.38;;;;;;;11.13;57.32;103128.56;6187083;23;20005;-82
2022/04/28 09:01:52;;;;;;;18.77;9.90;;;;;;;11.18;57.55;103130.09;6186940;23;20032;-84
2022/04/28 09:04:18;;;;;;;22.35;10.20;;;;;;;11.20;55.76;103124.88;6186920;23;20008;-83
2022/04/28 09:06:45;;;;;;;23.05;10.75;;;;;;;11.26;56.03;103122.13;6187139;23;20358;-83
2022/04/28 09:09:13;;;;;;;19.70;10.10;;;;;;;11.22;54.28;103124.84;6186686;23;20005;-82
2022/04/28 09:11:41;;;;;;;18.67;9.73;;;;;;;11.16;56.04;103100.84;6187800;22;20097;-88
2022/04/28 09:14:23;;;;;;;18.00;10.32;;;;;;;11.38;55.81;103126.06;6186679;22;20009;-86
2022/04/28 09:16:58;;;;;;;19.75;9.88;;;;;;;10.61;55.77;102993.84;6186392;22;20041;-85
2022/04/28 09:19:42;;;;;;;17.48;9.32;;;;;;;10.43;55.50;102949.66;6152790;23;20005;-84
2022/04/28 09:22:12;;;;;;;19.50;9.95;;;;;;;11.27;57.54;103066.91;6186606;23;20001;-84
2022/04/28 09:24:39;;;;;;;24.20;9.95;;;;;;;10.98;56.74;103002.28;6186738;23;20084;-84
2022/04/28 09:27:05;;;;;;;18.02;10.07;;;;;;;10.79;55.10;102965.81;6186963;23;20074;-86
2022/04/28 09:29:39;;;;;;;20.65;10.23;;;;;;;10.84;54.60;102957.03;6186766;23;20401;-85
2022/04/28 09:32:18;;;;;;;16.65;9.40;;;;;;;11.82;54.34;103108.41;6186721;23;20504;-83
2022/04/28 09:34:49;;;;;;;18.45;9.75;;;;;;;11.87;54.45;103116.84;6186627;23;20028;-85
2022/04/28 09:37:19;;;;;;;16.25;9.65;;;;;;;11.27;54.03;102996.22;6186526;23;20034;-86
2022/04/28 09:42:39;;;;;;;18.17;9.40;;;;;;;11.58;53.34;103047.84;6186513;23;20023;-86
2022/04/28 09:45:05;;;;;;;20.42;9.60;;;;;;;11.59;54.13;103049.53;6186684;23;20370;-83
2022/04/28 09:47:31;;;;;;;21.20;10.02;;;;;;;11.59;54.44;103042.63;6186704;23;20040;-82
2022/04/28 09:49:57;;;;;;;18.70;9.77;;;;;;;11.82;54.24;103065.22;6186457;23;20005;-84
2022/04/28 09:52:25;;;;;;;23.00;10.90;;;;;;;12.10;54.04;103108.34;6185686;23;20316;-82
2022/04/28 09:54:52;;;;;;;19.83;10.90;;;;;;;12.15;52.58;103109.03;6186482;23;20088;-83
2022/04/28 09:57:20;;;;;;;22.02;10.75;;;;;;;12.18;53.94;103107.16;6186437;23;20000;-82
2022/04/28 09:59:46;;;;;;;20.65;10.80;;;;;;;11.97;52.59;103071.63;6186576;23;20009;-80
2022/04/28 10:02:16;;;;;;;23.75;10.93;;;;;;;12.23;53.13;103104.44;6186104;23;20008;-86
2022/04/28 10:04:45;;;;;;;21.63;10.90;;;;;;;12.09;54.40;103071.22;6186542;23;20001;-83
2022/04/28 10:07:14;;;;;;;23.20;11.00;;;;;;;12.24;52.69;103083.66;6186071;23;20001;-83
2022/04/28 10:09:40;;;;;;;18.92;10.60;;;;;;;12.22;53.21;103061.31;6186327;23;20004;-82
2022/04/28 10:12:07;;;;;;;18.67;10.52;;;;;;;12.25;52.95;103050.84;6185903;23;20088;-82
2022/04/28 10:14:40;;;;;;;16.10;9.35;;;;;;;12.38;53.32;103066.78;6186088;23;20001;-81
2022/04/28 10:17:14;;;;;;;19.40;10.50;;;;;;;12.29;51.99;103034.28;6185980;23;20009;-83
2022/04/28 10:19:44;;;;;;;24.75;12.05;;;;;;;12.54;51.59;103073.13;6159893;23;20001;-82
2022/04/28 10:22:16;;;;;;;22.47;10.03;;;;;;;12.43;52.49;103046.75;6186043;23;20081;-82
2022/04/28 10:33:10;;;;;;;19.88;11.60;;;;;;;12.76;51.89;103065.44;6186319;23;20043;-80
2022/04/28 10:35:44;;;;;;;24.70;12.82;;;;;;;12.76;50.86;103079.25;6186265;23;20335;-82
2022/04/28 10:38:09;;;;;;;17.73;11.02;;;;;;;12.75;51.36;103056.81;6186031;23;20084;-82
2022/04/28 10:40:40;;;;;;;22.42;12.38;;;;;;;12.73;51.29;103076.75;6185462;23;20086;-81
2022/04/28 10:43:19;;;;;;;23.70;12.30;;;;;;;12.71;52.68;103062.19;6185854;23;20009;-80
2022/04/28 10:45:46;;;;;;;18.58;11.25;;;;;;;12.55;51.00;103034.19;6186333;23;20324;-80
2022/04/28 10:48:24;;;;;;;21.23;11.38;;;;;;;12.95;54.46;103066.44;6185909;23;20059;-80
2022/04/28 10:51:12;;;;;;;22.35;12.43;;;;;;;12.94;51.81;103064.75;6186158;23;20376;-80
2022/04/28 10:54:03;;;;;;;24.40;11.68;;;;;;;12.94;52.25;103056.97;6185929;23;20088;-79
2022/04/28 10:56:44;;;;;;;26.05;13.20;;;;;;;13.08;53.01;103057.31;6185828;23;20319;-78
2022/04/28 11:01:53;;;;;;;20.50;12.85;;;;;;;13.20;50.42;103061.22;6186318;23;20013;-80
2022/04/28 11:04:23;;;;;;;25.92;13.05;;;;;;;13.15;50.56;103052.72;6186101;23;20382;-79
2022/04/28 11:06:55;;;;;;;24.35;13.70;;;;;;;13.16;51.06;103062.19;6185748;23;20005;-79
2022/04/28 11:09:55;;;;;;;21.70;12.40;;;;;;;13.10;50.32;103052.91;6185495;23;20364;-79
2022/04/28 11:12:22;;;;;;;22.75;13.30;;;;;;;13.08;50.56;103051.28;6037295;23;20012;-79
2022/04/28 11:14:48;;;;;;;20.67;11.90;;;;;;;13.06;51.63;103038.34;6037236;23;20098;-79
2022/04/28 11:17:16;;;;;;;22.55;12.55;;;;;;;13.22;51.20;103050.78;6061473;23;20023;-78
2022/04/28 11:19:43;;;;;;;22.67;13.65;;;;;;;13.07;50.51;103021.88;6066034;23;20453;-79
2022/04/28 11:22:11;;;;;;;22.35;13.02;;;;;;;13.09;50.50;103032.22;6065658;23;20010;-79
2022/04/28 11:24:43;;;;;;;21.38;12.82;;;;;;;13.32;51.86;103047.78;6065895;23;20011;-75
2022/04/28 11:27:13;;;;;;;22.33;11.95;;;;;;;13.40;52.64;103024.97;6065636;23;20441;-82
2022/04/28 11:29:42;;;;;;;23.95;14.38;;;;;;;13.29;49.53;103027.13;6065756;23;20073;-80
2022/04/28 11:32:10;;;;;;;20.52;12.50;;;;;;;13.32;49.45;103021.81;6064605;23;20014;-81
2022/04/28 11:34:35;;;;;;;27.15;13.70;;;;;;;13.59;51.82;103045.00;6065689;23;20409;-75
2022/04/28 11:37:20;;;;;;;24.48;13.30;;;;;;;13.63;51.49;103049.13;6065545;23;20007;-79
2022/04/28 11:39:46;;;;;;;23.00;12.98;;;;;;;13.57;49.47;103042.47;6064927;23;20069;-79
2022/04/28 11:42:13;;;;;;;24.05;13.23;;;;;;;13.33;50.31;103028.69;6065307;23;20382;-81
2022/04/28 11:44:51;;;;;;;22.08;13.18;;;;;;;13.54;50.61;103039.97;6060882;23;20011;-82
2022/04/28 11:47:20;;;;;;;19.85;10.52;;;;;;;13.89;60.06;103043.72;6065214;23;20090;-80